Barksdale Air Force Base
KBAD : now visible

Airfield :











YOU CAN JOIN US ON...

 
LOGIN :

Register | Disclaimer

   EN    FR    IT 

 









Legend :    VFR   Marginal VFR   IFR   Intensive IFR   Very Intensive IFR
Visi :
Ceiling :
>= 8 km
>= 3000ft
5 to 8 km
1000 to 3000 ft
1500m to 5 km
500 to 1000 ft
800 to 1500m
200 to 500 ft
< 800m
< 200 ft
Symbols :   Thunderstorms  Fog  Heavy snow  Heavy precipitations  Wind > 20 kt






- Airport Elevation : 166 ft


KBAD - Barksdale Air Force Base

CURRENT METAR :
  • 201156Z AUTO 00000KT 3/8SM R15/1800V2400FT FG CLR 19/18 A3005 RMK AO2 SLP178 T01870184 10221 20187 52014

EXPIRED METARs :
  • 201146Z AUTO 00000KT 3/8SM R15/1800V5500FT FG CLR 19/19 A3005 RMK AO2 VIS 3/8V2 1/4 SLP178
  • 201136Z AUTO 00000KT 2 1/2SM BR CLR 19/19 A3005 RMK AO2 VIS 2 1/2V5 VIS 7/8 RWY33 SLP178
  • 201056Z AUTO 09003KT 6SM BR BKN085 19/18 A3004 RMK AO2 VIS 2 1/4 RWY33 SLP174 T01890184
  • 201046Z AUTO 10004KT 4SM BR BKN085 19/18 A3004 RMK AO2 VIS 1 1/4 RWY33 SLP174
  • 201036Z AUTO 09003KT 1 3/4SM BR CLR 19/19 A3004 RMK AO2 VIS 1/2V1 3/4 VIS 1 RWY33 SLP174
  • 201026Z AUTO 09003KT 1/2SM R15/2400V4000FT FG CLR 19/19 A3004 RMK AO2 VIS 1/2V3 SLP174
  • 200956Z AUTO 00000KT 8SM CLR 20/20 A3002 RMK AO2 SLP167 T02010196

TAF AMD TAF KBAD
Valid from the 20 at 12:00 until the 21 at 16:00 UTC


201205Z 2012/2116 14006KT 4800 BR SKC QNH3002INS
BECMG 2015/2016 17008KT 9999 NSW SCT020 QNH2998INS
BECMG 2100/2101 13006KT 9999 SCT040 QNH3000INS
BECMG 2110/2111 14005KT 3200 BR FEW080 QNH3000INS
BECMG 2114/2115 11005KT 9999 NSW SCT020 QNH3000INS TX28/2021Z TN20/2012Z
KZFW FIR / North America



MET'MAP, your aeronautical weather chart ! - Copyright ORBIFLY December 2007 - Disclaimer

ORBIFLY MET'MAP TEAM :

Programming & Development : Alexandra Zaïnal
Concept & original design : Baudouin d'Aumeries
Assistance for programming : Marc-Olivier Méhu
Technical & hardware support : Manuel Goepfert

Contact : metmap@orbifly.com




SOURCES & CREDITS :

   NOAA       Earth
Advisory